WEATHER DATA

YESTERDAY
Time Temp. Dewp. Hum. Wind dir Wind speed Wind gust Bar. 1h Prec. 24h Prec.
00:02 14.1 9.7 75 270 1.7 3.9 1011.2 0.0000 0.0000
00:21 14 9.6 75 270 1.7 3.1 1011.2 0.0000 0.0000
00:37 13.9 9.5 75 270 1.7 3.3 1011.2 0.0000 0.0000
00:47 13.9 9.5 75 276 1.7 3.9 1011.2 0.0000 0.0000
00:56 13.9 9.5 75 282 1.7 3.3 1011.2 0.0000 0.0000
01:07 13.9 9.5 75 270 0.8 2.5 1011.2 0.0000 0.0000
01:17 13.9 9.5 75 287 0.8 3.1 1011.1 0.0000 0.0000
01:27 13.9 9.5 75 292 0.8 2.5 1011.1 0.0000 0.0000
01:37 13.9 9.5 75 279 1.4 3.1 1011.1 0.0000 0.0000
01:47 13.8 9.5 75 257 1.4 3.1 1011 0.0000 0.0000
01:57 13.8 9.5 75 270 1.4 3.1 1011.1 0.0000 0.0000
02:07 13.8 9.5 75 270 1.4 2.2 1011.1 0.0000 0.0000
02:17 13.8 9.6 76 270 0.8 3.1 1011.1 0.0000 0.0000
02:28 13.8 9.6 76 270 1.7 3.3 1011.1 0.0000 0.0000
02:37 13.7 9.6 76 262 1.7 4.7 1010.9 0.0000 0.0000
02:47 13.6 9.5 76 270 1.7 4.2 1010.8 0.0000 0.0000
02:58 13.5 9.4 76 264 1.4 3.9 1010.9 0.0000 0.0000
03:08 13.4 9.5 77 270 1.4 3.1 1011 0.0000 0.0000
03:18 13.4 9.5 77 270 1.4 3.1 1010.9 0.0000 0.0000
03:28 13.4 9.5 77 270 0.8 2.2 1010.9 0.0000 0.0000
03:43 13.4 9.6 78 264 1.7 3.9 1010.8 0.0000 0.0000
03:53 13.4 9.6 78 270 1.4 2.8 1010.7 0.0000 0.0000
04:03 13.5 9.7 78 270 1.7 2.8 1010.7 0.0000 0.0000
04:13 13.5 9.7 78 270 2.2 5 1010.8 0.0000 0.0000
04:23 13.6 9.6 77 270 1.4 3.1 1010.8 0.0000 0.0000
04:33 13.6 9.6 77 270 1.4 2.8 1010.7 0.0000 0.0000
04:44 13.6 9.6 77 270 1.4 2.5 1010.7 0.0000 0.0000
04:54 13.7 9.7 77 280 0.8 2.2 1010.7 0.0000 0.0000
05:03 13.7 9.7 77 289 1.4 3.3 1010.6 0.0000 0.0000
05:13 13.7 9.7 77 270 0.8 2.2 1010.6 0.0000 0.0000
05:24 13.7 9.7 77 270 1.4 2.8 1010.6 0.0000 0.0000
05:34 13.7 9.7 77 278 1.7 3.3 1010.7 0.0000 0.0000
05:44 13.7 9.7 77 276 1.7 3.9 1010.6 0.0000 0.0000
05:54 13.7 9.7 77 262 1.4 3.3 1010.6 0.0000 0.0000
06:04 13.7 9.7 77 276 1.4 2.8 1010.6 0.0000 0.0000
06:14 13.7 9.7 77 270 1.4 4.7 1010.5 0.0000 0.0000
06:24 13.7 9.7 77 270 1.7 3.9 1010.5 0.0000 0.0000
06:35 13.8 10 78 285 1.4 2.8 1010.5 0.0000 0.0000
06:44 13.8 10 78 295 1.4 3.1 1010.5 0.0000 0.0000
06:54 13.8 10 78 279 1.4 2.5 1010.3 0.0000 0.0000
07:05 13.9 10.3 79 270 0.8 2.8 1010.3 0.0000 0.0000
07:15 13.9 10.3 79 293 1.7 5 1010.5 0.0000 0.0000
07:27 14 10.6 80 282 2.2 7.8 1010.3 0.0000 0.0000
07:37 14.1 10.5 79 290 1.7 4.2 1010.5 0.0000 0.0000
07:47 14.3 10.7 79 260 1.7 3.3 1010.5 0.0000 0.0000
07:58 14.3 10.9 80 270 1.7 3.1 1010.3 0.0000 0.0000
08:12 14.5 11.1 80 283 1.4 3.9 1010.3 0.0000 0.0000
08:22 14.7 11.1 79 270 2.2 4.2 1010.5 0.0000 0.0000
08:33 14.8 11 78 282 2.2 4.4 1010.5 0.0000 0.0000
08:43 14.8 11 78 305 1.9 5.6 1010.5 0.0000 0.0000
08:53 15.1 11.1 77 270 1.9 3.3 1010.3 0.0000 0.0000
09:02 15.3 11.1 76 262 2.2 5.8 1010.3 0.0000 0.0000
09:13 15.6 11.4 76 270 1.7 3.9 1010.5 0.0000 0.0000
09:22 15.6 11.4 76 270 1.9 6.4 1010.5 0.0000 0.0000
09:32 15.5 11.5 77 275 1.9 5 1010.5 0.0000 0.0000
09:42 15.7 11.5 76 270 1.9 4.2 1010.5 0.0000 0.0000
09:52 15.8 11.6 76 259 1.7 3.9 1010.5 0.0000 0.0000
10:02 15.9 11.7 76 264 1.9 3.9 1010.5 0.0000 0.0000
10:13 16.2 11.8 75 285 1.9 5 1010.3 0.0000 0.0000
10:23 16.3 11.5 73 270 2.2 5 1010.3 0.0000 0.0000
10:32 16.6 12 74 275 1.9 4.4 1010.2 0.0000 0.0000
10:42 16.6 11.5 72 270 2.2 4.7 1010.3 0.0000 0.0000
10:53 17 11.7 71 275 2.5 5.6 1010.3 0.0000 0.0000
11:03 17.4 11.9 70 283 2.2 5 1010.2 0.0000 0.0000
11:12 17.2 12.1 72 254 1.9 4.7 1010.3 0.0000 0.0000
11:23 17.3 11.8 70 270 2.2 4.4 1010.3 0.0000 0.0000
11:33 17.9 11.9 68 261 1.9 4.2 1010.3 0.0000 0.0000
11:43 18.1 11.9 67 270 2.8 5.8 1010.5 0.0000 0.0000
11:53 18.9 11.7 63 270 2.5 6.4 1010.3 0.0000 0.0000
12:03 18.4 11.7 65 256 2.2 5 1010.2 0.0000 0.0000
12:13 19.1 11.9 63 280 2.2 4.7 1010.2 0.0000 0.0000
12:23 19.5 11.8 61 276 2.8 6.9 1010.2 0.0000 0.0000
12:34 19.7 12 61 274 2.5 5 1010.5 0.0000 0.0000
12:43 19.5 11.5 60 281 2.5 6.7 1010.5 0.0000 0.0000
12:53 19.6 11.4 59 278 2.5 5.6 1010.5 0.0000 0.0000
13:03 20 11.5 58 289 2.2 5.3 1010.5 0.0000 0.0000
13:14 19.7 11.7 60 277 2.8 5 1010.5 0.0000 0.0000
13:24 19.5 11 58 290 3.1 5.3 1010.5 0.0000 0.0000
13:33 20.1 11.8 59 289 2.5 6.7 1010.5 0.0000 0.0000
13:44 20 11.2 57 270 2.2 4.7 1010.3 0.0000 0.0000
13:54 20 11.8 59 283 2.5 5 1010.3 0.0000 0.0000
14:04 20.7 12.1 58 266 2.5 5 1010.6 0.0000 0.0000
14:14 20.9 11.5 55 284 2.2 4.4 1010.6 0.0000 0.0000
14:24 21.3 12.2 56 274 2.2 5.6 1010.6 0.0000 0.0000
14:49 21.1 11.4 54 279 2.2 4.7 1010.7 0.0000 0.0000
15:00 21.3 11.3 53 270 2.5 6.4 1010.7 0.0000 0.0000
15:09 21.5 11.2 52 278 2.2 6.4 1010.7 0.0000 0.0000
15:19 21 11.6 55 277 1.9 3.3 1010.8 0.0000 0.0000
15:30 21.7 12 54 278 1.9 4.7 1010.9 0.0000 0.0000
15:40 21.6 11.9 54 264 1.9 4.7 1011 0.0000 0.0000
15:59 21.5 11.8 54 270 1.7 4.2 1011.1 0.0000 0.0000
16:10 21 11.3 54 270 2.8 4.7 1011.1 0.0000 0.0000
16:20 21.5 12.1 55 285 1.9 5 1011.1 0.0000 0.0000
16:30 21.5 11.5 53 270 2.2 5 1011 0.0000 0.0000
16:40 21.5 11.5 53 282 2.2 4.7 1010.9 0.0000 0.0000
17:00 21.5 11.5 53 270 2.2 5.3 1010.9 0.0000 0.0000
17:21 21.3 11.6 54 270 2.2 4.7 1010.9 0.0000 0.0000
17:31 20.9 11.5 55 270 2.2 4.7 1011 0.0000 0.0000
17:51 20.8 11.2 54 276 1.9 3.3 1011.1 0.0000 0.0000
18:01 20.8 11.2 54 277 2.2 5 1011.1 0.0000 0.0000
18:16 20.5 11.4 56 278 1.9 4.2 1011.2 0.0000 0.0000
18:26 20.2 11.2 56 270 1.9 4.4 1011.3 0.0000 0.0000
18:36 20 11.2 57 270 1.9 4.2 1011.4 0.0000 0.0000
18:46 20 11.2 57 276 1.7 3.1 1011.4 0.0000 0.0000
18:56 19.9 11.4 58 270 1.7 3.1 1011.4 0.0000 0.0000
19:07 19.8 11.3 58 270 1.9 3.9 1011.4 0.0000 0.0000
19:16 19.8 11.3 58 270 1.9 4.7 1011.4 0.0000 0.0000
19:26 19.9 11.4 58 275 2.2 5 1011.5 0.0000 0.0000
19:37 19.9 11.4 58 270 2.2 6.4 1011.6 0.0000 0.0000
19:47 19.9 11.4 58 279 1.9 3.9 1011.6 0.0000 0.0000
19:57 19.7 11.2 58 263 1.4 3.3 1011.5 0.0000 0.0000
20:06 19.5 11 58 270 1.9 3.9 1011.6 0.0000 0.0000
20:17 19.2 11 59 270 1.9 3.3 1011.6 0.0000 0.0000
20:27 18.9 10.7 59 270 2.2 4.4 1011.6 0.0000 0.0000
20:47 18.2 10.8 62 270 0.8 2.5 1011.8 0.0000 0.0000
20:57 17.7 10.3 62 282 1.7 3.1 1011.8 0.0000 0.0000
21:07 17.2 10.3 64 280 1.7 2.8 1011.9 0.0000 0.0000
21:17 16.7 10.1 65 280 1.7 4.2 1012 0.0000 0.0000
21:28 16.2 9.8 66 270 1.7 2.8 1011.9 0.0000 0.0000
21:38 15.8 9.7 67 284 1.7 3.3 1012 0.0000 0.0000
21:47 15.5 9.6 68 265 1.7 3.3 1012.1 0.0000 0.0000
21:57 15.1 9.5 69 276 1.7 2.8 1012.2 0.0000 0.0000
22:08 14.8 9.4 70 270 1.4 2.8 1012.2 0.0000 0.0000
22:18 14.5 9.3 71 270 1.4 3.9 1012.3 0.0000 0.0000
22:28 14.3 9.3 72 270 0.8 1.9 1012.3 0.0000 0.0000
22:38 14 9 72 270 1.4 3.1 1012.3 0.0000 0.0000
22:48 13.8 9.1 73 270 0.8 2.8 1012.3 0.0000 0.0000
22:58 13.6 8.9 73 270 1.4 2.8 1012.3 0.0000 0.0000
23:08 13.4 8.9 74 270 1.4 2.8 1012.4 0.0000 0.0000
23:19 13.3 8.8 74 264 1.4 3.3 1012.3 0.0000 0.0000
23:28 13.1 8.8 75 270 0.8 2.8 1012.4 0.0000 0.0000
23:38 13 8.7 75 270 0.8 3.3 1012.4 0.0000 0.0000
23:49 12.8 8.5 75 270 0.8 2.5 1012.4 0.0000 0.0000

DAY STATISTIC

2019-07-16
TEMPERATURE
AVERAGE
16.6
HIGH
21.7
15:30
LOW
12.8
23:49
PRESSURE
AVERAGE
1011.0
HIGH
1012.4
23:08
LOW
1010.2
10:32
DEWPOINT
AVERAGE
10.6
HIGH
12.2
14:24
LOW
8.5
23:49
HUMIDITY
AVERAGE
69
HIGH
80
07:27
LOW
52
15:09
WIND SPEED
AVERAGE
1.8
HIGH
3.1
13:24
WIND GUST
AVERAGE
4.0
HIGH
7.8
07:27
WIND DIRECTION
PREVAILING
W
97.7%
N
0.0
NE
0.0
E
0.0
SE
0.0
S
0.0
SW
0.0
W
97.7
NW
2.3
PRECIPITATION
RAIN HOUR
0.0
RAIN DAY
0.0
TEMPERATURE (°C)
LOW
12.8
HIGH
21.7
AVERAGE
16.6
PRESSURE (hpa)
LOW
1010.2
HIGH
1012.4
AVERAGE
1011.0
DEVICE